Time;durP1;ratioP1;P1;durP2;ratioP2;P2;SDS_P1;SDS_P2;PMS_P1;PMS_P2;Temp;Humidity;BMP_temperature;BMP_pressure;BME280_temperature;BME280_humidity;BME280_pressure;Samples;Min_cycle;Max_cycle;Signal;HPM_P1;HPM_P2
2023/04/09 00:00:21;;;;;;;38.20;20.10;;;;;;;-145.18;100.00;46687.75;6181619;23;20467;-69
2023/04/09 00:02:46;;;;;;;35.23;19.03;;;;;;;-145.18;100.00;46687.75;6181935;23;20033;-69
2023/04/09 00:05:13;;;;;;;36.47;20.07;;;;;;;-145.18;100.00;46679.94;6181591;23;20021;-69
2023/04/09 00:07:38;;;;;;;35.47;20.37;;;;;;;-145.18;100.00;46681.88;6181776;23;20019;-69
2023/04/09 00:10:04;;;;;;;37.57;20.50;;;;;;;-145.18;100.00;46672.13;6181976;23;20302;-69
2023/04/09 00:12:30;;;;;;;32.80;19.63;;;;;;;-145.18;100.00;46668.22;6181780;23;20001;-69
2023/04/09 00:14:56;;;;;;;36.17;20.23;;;;;;;-145.18;100.00;46660.41;6181800;23;20242;-69
2023/04/09 00:17:21;;;;;;;34.17;20.43;;;;;;;-145.18;100.00;46660.41;6181366;23;20513;-69
2023/04/09 00:19:47;;;;;;;34.83;19.93;;;;;;;-145.18;100.00;46660.41;6181997;23;20242;-69
2023/04/09 00:22:12;;;;;;;36.13;20.57;;;;;;;-145.18;100.00;46681.88;6155339;23;20008;-69
2023/04/09 00:24:38;;;;;;;36.47;19.77;;;;;;;-145.18;100.00;46681.88;6181901;23;20080;-69
2023/04/09 00:27:03;;;;;;;35.67;20.63;;;;;;;-145.18;100.00;46660.41;6155010;23;20093;-69
2023/04/09 00:29:28;;;;;;;37.00;21.37;;;;;;;-145.18;100.00;46660.41;6182098;23;20009;-69
2023/04/09 00:31:54;;;;;;;32.90;19.77;;;;;;;-145.18;100.00;46679.94;6181727;23;20005;-69
2023/04/09 00:34:19;;;;;;;34.77;20.13;;;;;;;-145.18;100.00;46648.69;6182028;23;20583;-68
2023/04/09 00:36:45;;;;;;;36.77;20.67;;;;;;;-145.18;100.00;46652.59;6181323;23;20064;-68
2023/04/09 00:39:10;;;;;;;33.67;19.63;;;;;;;-145.18;100.00;46656.50;6181944;23;20414;-69
2023/04/09 00:41:35;;;;;;;34.80;20.57;;;;;;;-145.18;100.00;46650.63;6181673;23;20603;-68
2023/04/09 00:44:01;;;;;;;34.97;19.93;;;;;;;-145.18;100.00;46654.53;6182068;23;20066;-69
2023/04/09 00:46:26;;;;;;;32.10;19.53;;;;;;;-145.18;100.00;46662.34;6177836;23;20032;-69
2023/04/09 00:48:52;;;;;;;33.90;19.83;;;;;;;-145.18;100.00;46670.16;6182100;23;20016;-68
2023/04/09 00:51:17;;;;;;;38.70;20.53;;;;;;;-145.18;100.00;46660.41;6182236;23;20061;-69
2023/04/09 00:53:43;;;;;;;37.70;20.30;;;;;;;-145.18;100.00;46648.69;6183671;23;20013;-69
2023/04/09 00:56:11;;;;;;;39.80;21.23;;;;;;;-145.18;100.00;46648.69;6183618;23;20012;-69
2023/04/09 00:58:36;;;;;;;35.27;20.43;;;;;;;-145.18;100.00;46681.88;6183751;23;20005;-69
2023/04/09 01:01:02;;;;;;;34.23;20.40;;;;;;;-145.18;100.00;46681.88;6183831;23;20327;-69
2023/04/09 01:03:28;;;;;;;34.90;20.13;;;;;;;-145.18;100.00;46679.94;6183651;23;20032;-69
2023/04/09 01:06:09;;;;;;;35.20;19.53;;;;;;;-145.18;100.00;46660.41;6183702;23;20086;-69
2023/04/09 01:08:41;;;;;;;33.03;19.47;;;;;;;-145.18;100.00;46660.41;6183407;23;20087;-69
2023/04/09 01:11:30;;;;;;;38.40;21.40;;;;;;;-145.18;100.00;46660.41;6183619;23;20234;-68
2023/04/09 01:14:08;;;;;;;32.63;18.73;;;;;;;-145.18;100.00;46660.41;6184063;23;20234;-69
2023/04/09 01:16:35;;;;;;;37.13;19.80;;;;;;;-145.18;100.00;46660.41;6183269;23;20301;-68
2023/04/09 01:19:22;;;;;;;40.90;20.53;;;;;;;-145.18;100.00;46660.41;6183760;23;20230;-68
2023/04/09 01:21:48;;;;;;;34.47;19.27;;;;;;;-145.18;100.00;46660.41;6183623;23;20225;-69
2023/04/09 01:24:28;;;;;;;39.40;21.63;;;;;;;-145.18;100.00;46642.81;6183248;23;20262;-69
2023/04/09 01:27:08;;;;;;;35.23;20.37;;;;;;;-145.18;100.00;46633.06;6182954;23;20219;-69
2023/04/09 01:29:38;;;;;;;34.07;20.20;;;;;;;-145.18;100.00;46636.94;6183518;23;20238;-69
2023/04/09 01:32:06;;;;;;;33.73;20.10;;;;;;;-145.18;100.00;46633.06;6183146;23;20227;-69
2023/04/09 01:34:32;;;;;;;34.47;19.73;;;;;;;-145.18;100.00;46629.13;6183495;23;20242;-69
2023/04/09 01:36:59;;;;;;;33.90;19.63;;;;;;;-145.18;100.00;46629.13;6182751;23;20259;-69
2023/04/09 01:39:26;;;;;;;33.77;19.40;;;;;;;-145.18;100.00;46631.09;6183395;23;20235;-69
2023/04/09 01:41:52;;;;;;;33.57;19.13;;;;;;;-145.18;100.00;46633.06;6183218;23;20673;-69
2023/04/09 01:44:19;;;;;;;32.30;19.20;;;;;;;-145.18;100.00;46631.09;6157004;23;20298;-69
2023/04/09 01:46:48;;;;;;;32.83;19.50;;;;;;;-145.18;100.00;46631.09;6182915;23;20711;-69
2023/04/09 01:49:14;;;;;;;31.17;18.40;;;;;;;-145.18;100.00;46627.19;6183089;23;20266;-69
2023/04/09 01:51:40;;;;;;;34.67;19.30;;;;;;;-145.18;100.00;46625.22;6183219;23;20637;-69
2023/04/09 01:54:05;;;;;;;37.47;19.50;;;;;;;-145.18;100.00;46631.09;6183169;23;20262;-69
2023/04/09 01:56:44;;;;;;;35.33;19.27;;;;;;;-145.18;100.00;46629.13;6183112;23;20013;-69
2023/04/09 01:59:09;;;;;;;30.03;18.03;;;;;;;-145.18;100.00;46629.13;6182974;23;20001;-69
2023/04/09 02:04:09;;;;;;;33.23;19.63;;;;;;;-145.18;100.00;46629.13;6181879;23;20017;-69
2023/04/09 02:07:08;;;;;;;32.57;19.20;;;;;;;-145.18;100.00;46636.94;6183630;23;20226;-69
2023/04/09 02:09:38;;;;;;;32.23;19.43;;;;;;;-145.18;100.00;46631.09;6183079;23;20312;-69
2023/04/09 02:12:06;;;;;;;32.53;19.00;;;;;;;-145.18;100.00;46633.06;6183005;23;20251;-70
2023/04/09 02:14:32;;;;;;;33.80;18.90;;;;;;;-145.18;100.00;46633.06;6183396;23;20223;-69
2023/04/09 02:17:01;;;;;;;31.77;18.27;;;;;;;-145.18;100.00;46635.00;6183214;23;20587;-69
2023/04/09 02:19:41;;;;;;;34.70;18.30;;;;;;;-145.18;100.00;46635.00;6183521;23;20305;-69
2023/04/09 02:22:06;;;;;;;33.30;19.70;;;;;;;-145.18;100.00;46633.06;6182856;23;20231;-69
2023/04/09 02:24:32;;;;;;;32.03;18.27;;;;;;;-145.18;100.00;46629.13;6182416;23;20231;-69
2023/04/09 02:26:57;;;;;;;34.37;19.23;;;;;;;-145.18;100.00;46633.06;6156606;23;20013;-69
2023/04/09 02:29:23;;;;;;;35.53;19.70;;;;;;;-145.18;100.00;46627.19;6183396;23;20009;-69
2023/04/09 02:31:51;;;;;;;36.27;21.13;;;;;;;-145.18;100.00;46625.22;6182739;23;20017;-69
2023/04/09 02:34:17;;;;;;;34.37;19.13;;;;;;;-145.18;100.00;46633.06;6183314;23;20013;-69
2023/04/09 02:36:42;;;;;;;34.53;18.93;;;;;;;-145.18;100.00;46633.06;6183026;23;20259;-69
2023/04/09 02:39:08;;;;;;;34.73;19.73;;;;;;;-145.18;100.00;46631.09;6182866;23;20062;-69
2023/04/09 02:41:33;;;;;;;35.43;19.87;;;;;;;-145.18;100.00;46633.06;6182899;23;20125;-69
2023/04/09 02:43:58;;;;;;;39.83;20.27;;;;;;;-145.18;100.00;46631.09;6156402;23;20084;-69
2023/04/09 02:46:24;;;;;;;36.57;19.60;;;;;;;-145.18;100.00;46629.13;6183179;23;20009;-69
2023/04/09 02:48:49;;;;;;;37.20;20.40;;;;;;;-145.18;100.00;46636.94;6182936;23;20005;-69
2023/04/09 02:51:14;;;;;;;37.27;19.37;;;;;;;-145.18;100.00;46629.13;6182490;23;20229;-69
2023/04/09 02:53:40;;;;;;;33.73;18.57;;;;;;;-145.18;100.00;46633.06;6182718;23;20147;-69
2023/04/09 02:56:05;;;;;;;35.93;20.37;;;;;;;-145.18;100.00;46633.06;6182798;23;20009;-69
2023/04/09 02:58:31;;;;;;;35.30;20.43;;;;;;;-145.18;100.00;46633.06;6182774;23;20040;-69
2023/04/09 03:00:56;;;;;;;36.07;20.10;;;;;;;-145.18;100.00;46629.13;6181012;23;20442;-69
2023/04/09 03:03:21;;;;;;;37.10;18.40;;;;;;;-145.18;100.00;46631.09;6156071;23;20027;-69
2023/04/09 03:05:47;;;;;;;36.50;19.13;;;;;;;-145.18;100.00;46629.13;6183041;23;20009;-69
2023/04/09 03:08:12;;;;;;;36.03;19.50;;;;;;;-145.18;100.00;46635.00;6182522;23;20005;-69
2023/04/09 03:10:37;;;;;;;38.83;20.07;;;;;;;-145.18;100.00;46635.00;6183068;23;20071;-69
2023/04/09 03:13:03;;;;;;;35.93;19.67;;;;;;;-145.18;100.00;46640.88;6182636;23;20013;-69
2023/04/09 03:15:28;;;;;;;35.40;19.03;;;;;;;-145.18;100.00;46636.94;6182554;23;20057;-69
2023/04/09 03:17:53;;;;;;;38.93;20.33;;;;;;;-145.18;100.00;46652.59;6182751;23;20068;-69
2023/04/09 03:20:19;;;;;;;37.63;20.37;;;;;;;-145.18;100.00;46654.53;6182794;23;20051;-69
2023/04/09 03:22:44;;;;;;;36.83;18.50;;;;;;;-145.18;100.00;46660.41;6182553;23;20012;-69
2023/04/09 03:25:10;;;;;;;36.27;19.00;;;;;;;-145.18;100.00;46652.59;6182598;23;20017;-69
2023/04/09 03:27:35;;;;;;;37.00;20.13;;;;;;;-145.18;100.00;46656.50;6182529;23;20033;-69
2023/04/09 03:30:02;;;;;;;35.93;18.70;;;;;;;-145.18;100.00;46656.50;6177483;23;20075;-69
2023/04/09 03:32:27;;;;;;;33.87;18.37;;;;;;;-145.18;100.00;46654.53;6181471;23;20099;-69
2023/04/09 03:34:52;;;;;;;35.00;19.17;;;;;;;-145.18;100.00;46660.41;6181891;23;20235;-69
2023/04/09 03:37:18;;;;;;;37.67;19.83;;;;;;;-145.18;100.00;46656.50;6181666;23;20028;-69
2023/04/09 03:39:43;;;;;;;39.63;20.20;;;;;;;-145.18;100.00;46654.53;6155720;23;20080;-69
2023/04/09 03:42:08;;;;;;;36.30;18.97;;;;;;;-145.18;100.00;46660.41;6180139;23;20353;-69
2023/04/09 03:44:34;;;;;;;35.10;17.93;;;;;;;-145.18;100.00;46660.41;6182246;23;20013;-69
2023/04/09 03:46:59;;;;;;;37.60;18.50;;;;;;;-145.18;100.00;46646.72;6181454;23;20013;-69
2023/04/09 03:49:25;;;;;;;48.23;20.57;;;;;;;-145.18;100.00;46668.22;6182219;23;20005;-69
2023/04/09 03:51:50;;;;;;;35.17;19.07;;;;;;;-145.18;100.00;46681.88;6182628;23;20474;-69
2023/04/09 03:54:15;;;;;;;35.70;19.43;;;;;;;-145.18;100.00;46687.75;6181516;23;20032;-69
2023/04/09 03:56:41;;;;;;;36.83;20.17;;;;;;;-145.18;100.00;46685.78;6182258;23;20020;-69
2023/04/09 03:59:06;;;;;;;37.10;20.27;;;;;;;-145.18;100.00;46689.69;6181737;23;20024;-69
2023/04/09 04:01:31;;;;;;;37.90;19.33;;;;;;;-145.18;100.00;46689.69;6179895;23;20103;-69
2023/04/09 04:03:57;;;;;;;43.43;20.87;;;;;;;-145.18;100.00;46685.78;6181583;23;20483;-69
2023/04/09 04:06:22;;;;;;;38.83;20.77;;;;;;;-145.18;100.00;46693.59;6182084;23;20015;-69
2023/04/09 04:08:47;;;;;;;42.17;20.97;;;;;;;-145.18;100.00;46691.66;6181878;23;20016;-69
2023/04/09 04:11:13;;;;;;;40.47;20.17;;;;;;;-145.18;100.00;46691.66;6181896;23;20009;-69
2023/04/09 04:13:39;;;;;;;39.63;20.43;;;;;;;-145.18;100.00;46691.66;6181246;23;20389;-69
2023/04/09 04:16:08;;;;;;;43.70;21.93;;;;;;;-145.18;100.00;46693.59;6181098;23;20332;-69
2023/04/09 04:18:34;;;;;;;44.90;21.80;;;;;;;-145.18;100.00;46691.66;6181143;23;20033;-69
2023/04/09 04:21:00;;;;;;;42.27;21.27;;;;;;;-145.18;100.00;46685.78;6181755;23;20238;-69
2023/04/09 04:23:25;;;;;;;43.33;20.57;;;;;;;-145.18;100.00;46689.69;6181875;23;20012;-69
2023/04/09 04:25:51;;;;;;;39.53;20.43;;;;;;;-145.18;100.00;46697.50;6181755;23;20456;-69
2023/04/09 04:28:17;;;;;;;39.30;20.00;;;;;;;-145.18;100.00;46695.56;6181469;23;20626;-69
2023/04/09 04:30:43;;;;;;;40.17;19.30;;;;;;;-145.18;100.00;46703.38;6181600;23;20234;-69
2023/04/09 04:33:08;;;;;;;39.23;20.60;;;;;;;-145.18;100.00;46707.28;6154889;23;20023;-69
2023/04/09 04:35:34;;;;;;;37.50;19.33;;;;;;;-145.18;100.00;46707.28;6181599;23;20013;-68
2023/04/09 04:38:00;;;;;;;41.67;21.23;;;;;;;-145.18;100.00;46713.13;6180941;23;20382;-69
2023/04/09 04:40:25;;;;;;;40.87;19.87;;;;;;;-145.18;100.00;46713.13;6182079;23;20324;-69
2023/04/09 04:42:51;;;;;;;37.70;20.57;;;;;;;-145.18;100.00;46713.13;6181310;23;20231;-69
2023/04/09 04:45:16;;;;;;;45.80;21.77;;;;;;;-145.18;100.00;46707.28;6155245;23;20422;-69
2023/04/09 04:47:41;;;;;;;45.70;21.73;;;;;;;-145.18;100.00;46691.66;6181165;23;20093;-69
2023/04/09 04:50:08;;;;;;;45.83;21.70;;;;;;;-145.18;100.00;46693.59;6181568;23;20009;-69
2023/04/09 04:52:33;;;;;;;46.57;22.20;;;;;;;-145.18;100.00;46689.69;6155138;23;20092;-69
2023/04/09 04:54:58;;;;;;;47.43;21.50;;;;;;;-145.18;100.00;46687.75;6181175;23;20711;-69
2023/04/09 04:57:24;;;;;;;45.63;20.67;;;;;;;-145.18;100.00;46691.66;6181618;23;20066;-69
2023/04/09 04:59:49;;;;;;;51.57;23.03;;;;;;;-145.18;100.00;46687.75;6181578;23;20012;-69
2023/04/09 05:02:14;;;;;;;46.13;22.10;;;;;;;-145.18;100.00;46689.69;6154344;23;20112;-69
2023/04/09 05:04:40;;;;;;;43.80;21.60;;;;;;;-145.18;100.00;46689.69;6181691;23;20021;-69
2023/04/09 05:07:05;;;;;;;46.67;22.57;;;;;;;-145.18;100.00;46695.56;6181782;23;20021;-69
2023/04/09 05:09:30;;;;;;;48.90;22.57;;;;;;;-145.18;100.00;46689.69;6181326;23;20461;-69
2023/04/09 05:11:56;;;;;;;48.70;22.37;;;;;;;-145.18;100.00;46705.31;6173079;23;20091;-69
2023/04/09 05:14:21;;;;;;;53.70;23.17;;;;;;;-145.18;100.00;46707.28;6181330;23;20040;-69
2023/04/09 05:16:47;;;;;;;53.33;23.33;;;;;;;-145.18;100.00;46703.38;6155584;23;20009;-69
2023/04/09 05:19:12;;;;;;;51.10;23.03;;;;;;;-145.18;100.00;46707.28;6181338;23;20005;-69
2023/04/09 05:21:38;;;;;;;53.60;23.80;;;;;;;-145.18;100.00;46705.31;6181744;23;20015;-69
2023/04/09 05:24:03;;;;;;;55.77;23.73;;;;;;;-145.18;100.00;46707.28;6181211;23;20009;-69
2023/04/09 05:26:29;;;;;;;59.67;26.07;;;;;;;-145.18;100.00;46695.56;6180014;23;20012;-69
2023/04/09 05:28:55;;;;;;;60.10;26.07;;;;;;;-145.18;100.00;46693.59;6181357;23;20008;-69
2023/04/09 05:31:20;;;;;;;61.77;26.53;;;;;;;-145.18;100.00;46683.84;6181256;23;20005;-69
2023/04/09 05:33:46;;;;;;;63.83;25.37;;;;;;;-145.18;100.00;46689.69;6181186;23;20005;-69
2023/04/09 05:36:16;;;;;;;56.63;24.57;;;;;;;-145.18;100.00;46691.66;6181288;23;20013;-69
2023/04/09 05:38:42;;;;;;;58.67;26.00;;;;;;;-145.18;100.00;46691.66;6182954;23;19997;-69
2023/04/09 05:41:07;;;;;;;62.03;28.00;;;;;;;-145.18;100.00;46685.78;6157208;23;20234;-69
2023/04/09 05:43:32;;;;;;;66.23;27.77;;;;;;;-145.18;100.00;46679.94;6183379;23;20231;-69
2023/04/09 05:45:58;;;;;;;67.67;27.73;;;;;;;-145.18;100.00;46668.22;6183515;23;20063;-69
2023/04/09 05:48:23;;;;;;;61.50;28.43;;;;;;;-145.18;100.00;46650.63;6183068;23;20012;-69
2023/04/09 05:50:51;;;;;;;66.73;27.13;;;;;;;-145.18;100.00;46679.94;6183809;23;20534;-69
2023/04/09 05:53:17;;;;;;;76.27;28.57;;;;;;;-145.18;100.00;46660.41;6181533;23;20068;-69
2023/04/09 05:55:43;;;;;;;67.00;28.67;;;;;;;-145.18;100.00;46660.41;6182181;23;20633;-70
2023/04/09 05:58:08;;;;;;;62.37;27.17;;;;;;;-145.18;100.00;46660.41;6180850;23;20270;-69
2023/04/09 06:00:34;;;;;;;64.40;28.47;;;;;;;-145.18;100.00;46660.41;6182038;23;20020;-69
2023/04/09 06:02:59;;;;;;;70.77;28.47;;;;;;;-145.18;100.00;46650.63;6151094;23;20021;-69
2023/04/09 06:05:24;;;;;;;76.73;29.53;;;;;;;-145.18;100.00;46638.91;6145699;23;20505;-69
2023/04/09 06:07:50;;;;;;;66.40;29.13;;;;;;;-145.18;100.00;46635.00;6153204;23;20005;-69
2023/04/09 06:10:15;;;;;;;66.53;29.30;;;;;;;-145.18;100.00;46633.06;6152694;23;20016;-69
2023/04/09 06:12:40;;;;;;;67.00;29.20;;;;;;;-145.18;100.00;46636.94;6148879;23;20009;-70
2023/04/09 06:15:06;;;;;;;67.83;31.50;;;;;;;-145.18;100.00;46633.06;6148396;23;20180;-69
2023/04/09 06:17:31;;;;;;;77.10;31.07;;;;;;;-145.18;100.00;46629.13;6148930;23;20037;-69
2023/04/09 06:19:57;;;;;;;68.80;31.00;;;;;;;-145.18;100.00;46633.06;6152174;23;20053;-69
2023/04/09 06:22:22;;;;;;;72.37;31.27;;;;;;;-145.18;100.00;46629.13;6145466;23;20009;-69
2023/04/09 06:24:47;;;;;;;72.80;30.77;;;;;;;-145.18;100.00;46627.19;6153149;23;20045;-69
2023/04/09 06:27:13;;;;;;;81.27;33.83;;;;;;;-145.18;100.00;46629.13;6152118;23;20075;-70
2023/04/09 06:29:38;;;;;;;75.47;33.50;;;;;;;-145.18;100.00;46625.22;6152329;23;20017;-70
2023/04/09 06:32:04;;;;;;;73.20;31.30;;;;;;;-145.18;100.00;46629.13;6152625;23;20106;-70
2023/04/09 06:34:30;;;;;;;73.87;31.17;;;;;;;-145.18;100.00;46631.09;6151493;23;20017;-69
2023/04/09 06:36:55;;;;;;;83.93;33.93;;;;;;;-145.18;100.00;46631.09;6152915;23;20251;-69
2023/04/09 06:39:21;;;;;;;70.47;31.97;;;;;;;-145.18;100.00;46629.13;6151940;23;20170;-70
2023/04/09 06:41:46;;;;;;;76.53;33.03;;;;;;;-145.18;100.00;46625.22;6152620;23;20423;-70
2023/04/09 06:44:12;;;;;;;79.17;33.03;;;;;;;-145.18;100.00;46631.09;6151454;23;20044;-69
2023/04/09 06:46:37;;;;;;;80.97;33.20;;;;;;;-145.18;100.00;46627.19;6152565;23;20012;-69
2023/04/09 06:49:02;;;;;;;77.47;34.23;;;;;;;-145.18;100.00;46621.31;6152243;23;20002;-70
2023/04/09 06:51:28;;;;;;;81.57;34.97;;;;;;;-145.18;100.00;46635.00;6153227;23;20486;-70
2023/04/09 06:53:53;;;;;;;81.70;34.97;;;;;;;-145.18;100.00;46627.19;6152824;23;20010;-70
2023/04/09 06:56:18;;;;;;;75.23;32.43;;;;;;;-145.18;100.00;46635.00;6151289;23;20041;-70
2023/04/09 06:58:44;;;;;;;74.33;32.53;;;;;;;-145.18;100.00;46629.13;6151069;23;20063;-69
2023/04/09 07:01:09;;;;;;;73.13;32.17;;;;;;;-145.18;100.00;46633.06;6152342;23;20065;-69
2023/04/09 07:03:35;;;;;;;75.33;32.53;;;;;;;-145.18;100.00;46633.06;6171345;23;20020;-69
2023/04/09 07:06:00;;;;;;;78.03;34.50;;;;;;;-145.18;100.00;46633.06;6181445;23;20025;-70
2023/04/09 07:08:27;;;;;;;76.57;34.40;;;;;;;-145.18;100.00;46629.13;6182173;23;20443;-70
2023/04/09 07:10:52;;;;;;;68.97;31.33;;;;;;;-145.18;100.00;46636.94;6182666;23;20015;-71
2023/04/09 07:13:18;;;;;;;63.00;31.03;;;;;;;-145.18;100.00;46638.91;6182255;23;20231;-71
2023/04/09 07:15:43;;;;;;;60.63;26.57;;;;;;;-145.18;100.00;46633.06;6182731;23;20020;-70
2023/04/09 07:18:09;;;;;;;49.43;24.73;;;;;;;-145.18;100.00;46638.91;6182142;23;20013;-70
2023/04/09 07:20:35;;;;;;;52.23;25.00;;;;;;;-145.18;100.00;46635.00;6182329;23;20398;-69
2023/04/09 07:23:00;;;;;;;47.20;24.07;;;;;;;-145.18;100.00;46635.00;6182103;23;20270;-70
2023/04/09 07:25:25;;;;;;;45.97;21.57;;;;;;;-145.18;100.00;46631.09;6182585;23;20044;-69
2023/04/09 07:27:51;;;;;;;42.93;21.13;;;;;;;-145.18;100.00;46590.06;6181977;23;20013;-70
2023/04/09 07:30:16;;;;;;;48.27;22.70;;;;;;;-145.18;100.00;46586.16;6181651;23;20324;-69
2023/04/09 07:32:42;;;;;;;43.87;21.13;;;;;;;-145.18;100.00;46584.22;6182554;23;20065;-69
2023/04/09 07:35:10;;;;;;;46.33;21.67;;;;;;;-145.18;100.00;46578.34;6155653;23;20438;-70
2023/04/09 07:37:36;;;;;;;44.00;21.27;;;;;;;-145.18;100.00;46578.34;6182648;23;20012;-69
2023/04/09 07:40:05;;;;;;;43.40;21.60;;;;;;;-145.18;100.00;46582.25;6181950;23;20235;-69
2023/04/09 07:42:31;;;;;;;45.27;20.60;;;;;;;-145.18;100.00;46586.16;6156782;23;20039;-70
2023/04/09 07:44:56;;;;;;;41.33;21.03;;;;;;;-145.18;100.00;46586.16;6182152;23;20243;-70
2023/04/09 07:47:22;;;;;;;44.90;20.90;;;;;;;-145.18;100.00;46595.94;6181920;23;20032;-70
2023/04/09 07:49:48;;;;;;;41.57;20.73;;;;;;;-145.18;100.00;46593.97;6179840;23;20005;-70
2023/04/09 07:52:13;;;;;;;42.43;20.90;;;;;;;-145.18;100.00;46603.75;6181123;23;20060;-70
2023/04/09 07:54:39;;;;;;;39.83;20.23;;;;;;;-145.18;100.00;46593.97;6180534;23;20017;-70
2023/04/09 07:57:05;;;;;;;39.47;20.40;;;;;;;-145.18;100.00;46609.59;6181204;23;20427;-70
2023/04/09 07:59:31;;;;;;;41.73;21.30;;;;;;;-145.18;100.00;46603.75;6182063;23;20088;-70
2023/04/09 08:01:56;;;;;;;38.97;19.90;;;;;;;-145.18;100.00;46601.78;6181760;23;20882;-70
2023/04/09 08:04:22;;;;;;;43.37;20.37;;;;;;;-145.18;100.00;46609.59;6181388;23;20354;-70
2023/04/09 08:06:49;;;;;;;42.13;20.83;;;;;;;-145.18;100.00;46611.56;6182243;23;20442;-70
2023/04/09 08:09:16;;;;;;;44.40;21.70;;;;;;;-145.18;100.00;46617.41;6181600;23;20012;-70
2023/04/09 08:11:41;;;;;;;40.63;19.73;;;;;;;-145.18;100.00;46615.47;6182463;23;20223;-69
2023/04/09 08:14:11;;;;;;;45.67;20.70;;;;;;;-145.18;100.00;46617.41;6181762;23;20271;-70
2023/04/09 08:16:41;;;;;;;45.73;21.93;;;;;;;-145.18;100.00;46621.31;6182477;23;20012;-70
2023/04/09 08:19:08;;;;;;;41.60;20.87;;;;;;;-145.18;100.00;46621.31;6180825;23;20293;-70
2023/04/09 08:21:36;;;;;;;41.20;19.83;;;;;;;-145.18;100.00;46621.31;6181562;23;20104;-70
2023/04/09 08:24:03;;;;;;;37.90;20.53;;;;;;;-145.18;100.00;46636.94;6180803;23;20005;-71
2023/04/09 08:26:29;;;;;;;39.43;20.47;;;;;;;-145.18;100.00;46644.78;6182233;23;20012;-70
2023/04/09 08:28:55;;;;;;;39.83;20.13;;;;;;;-145.18;100.00;46664.31;6181524;23;20013;-70
2023/04/09 08:31:20;;;;;;;42.90;20.97;;;;;;;-145.18;100.00;46650.63;6155288;23;20016;-70
2023/04/09 08:33:46;;;;;;;39.23;20.40;;;;;;;-145.18;100.00;46642.81;6181261;23;20141;-71
2023/04/09 08:36:11;;;;;;;45.03;20.67;;;;;;;-145.18;100.00;46658.44;6181233;23;20075;-70
2023/04/09 08:38:37;;;;;;;39.50;20.77;;;;;;;-145.18;100.00;46672.13;6180979;23;20013;-70
2023/04/09 08:41:02;;;;;;;39.67;20.23;;;;;;;-145.18;100.00;46679.94;6181295;23;20005;-70
2023/04/09 08:43:30;;;;;;;40.87;19.73;;;;;;;-145.18;100.00;46695.56;6180545;23;20366;-70
2023/04/09 08:45:58;;;;;;;44.00;22.97;;;;;;;-145.18;100.00;46691.66;6180108;23;20369;-70
2023/04/09 08:48:24;;;;;;;44.20;22.13;;;;;;;-145.18;100.00;46695.56;6180497;23;20027;-70
2023/04/09 08:50:49;;;;;;;44.00;21.43;;;;;;;-145.18;100.00;46715.09;6180320;23;20005;-70
2023/04/09 08:53:16;;;;;;;42.90;23.03;;;;;;;-145.18;100.00;46722.91;6180902;23;20017;-70
2023/04/09 08:55:44;;;;;;;43.40;22.13;;;;;;;-145.18;100.00;46717.03;6180561;23;20009;-70
2023/04/09 08:58:10;;;;;;;43.27;22.43;;;;;;;-145.18;100.00;46707.28;6180544;23;20016;-70
2023/04/09 09:00:36;;;;;;;42.77;21.97;;;;;;;-145.18;100.00;46736.56;6181284;23;20092;-71
2023/04/09 09:03:05;;;;;;;43.80;23.83;;;;;;;-145.18;100.00;46732.66;6181395;23;20021;-71
2023/04/09 09:05:41;;;;;;;44.80;22.03;;;;;;;-145.18;100.00;46746.34;6182071;23;20068;-71
2023/04/09 09:08:12;;;;;;;45.20;22.23;;;;;;;-145.18;100.00;46769.78;6181245;23;20033;-71
2023/04/09 09:10:44;;;;;;;46.13;23.60;;;;;;;-145.18;100.00;46820.56;6181552;23;20005;-71
2023/04/09 09:13:22;;;;;;;42.13;22.40;;;;;;;-145.18;100.00;46887.00;6183536;23;20001;-71
2023/04/09 09:15:52;;;;;;;43.97;23.63;;;;;;;-145.18;100.00;46875.28;6157592;23;20093;-70
2023/04/09 09:18:18;;;;;;;43.80;22.10;;;;;;;-145.18;100.00;47262.06;6183029;23;20087;-71
2023/04/09 09:20:44;;;;;;;41.47;22.90;;;;;;;-145.18;100.00;47459.41;6183527;23;20084;-71
2023/04/09 09:23:09;;;;;;;41.60;22.30;;;;;;;-145.18;100.00;47439.84;6183583;23;20128;-71
2023/04/09 09:25:42;;;;;;;48.97;21.70;;;;;;;-145.18;100.00;47371.47;6183897;23;20052;-71
2023/04/09 09:28:11;;;;;;;43.30;23.67;;;;;;;-145.18;100.00;47373.44;6183832;23;20005;-71
2023/04/09 09:30:38;;;;;;;38.27;21.33;;;;;;;-145.18;100.00;47389.06;6183480;23;20071;-71
2023/04/09 09:33:10;;;;;;;44.67;23.00;;;;;;;-145.18;100.00;47391.00;6183555;23;20091;-71
2023/04/09 09:35:50;;;;;;;43.13;23.17;;;;;;;-145.18;100.00;47410.56;6183572;23;20009;-71
2023/04/09 09:38:16;;;;;;;43.47;22.43;;;;;;;-145.18;100.00;47402.72;6183407;23;20009;-71
2023/04/09 09:40:42;;;;;;;36.07;20.63;;;;;;;-145.18;100.00;47414.47;6183176;23;20044;-71
2023/04/09 09:43:08;;;;;;;41.73;22.13;;;;;;;-145.18;100.00;47379.28;6183555;23;20036;-70
2023/04/09 09:45:35;;;;;;;38.03;22.37;;;;;;;-145.18;100.00;47367.56;6183672;23;20445;-71
2023/04/09 09:48:02;;;;;;;39.90;22.13;;;;;;;-145.18;100.00;47387.09;6183524;23;20005;-71
2023/04/09 09:50:29;;;;;;;43.30;23.13;;;;;;;-145.18;100.00;47365.63;6183278;23;20016;-71
2023/04/09 09:53:09;;;;;;;40.20;22.67;;;;;;;-145.18;100.00;47334.34;6183532;23;20008;-71
2023/04/09 09:55:39;;;;;;;42.73;22.07;;;;;;;-145.18;100.00;47344.13;6183156;23;20079;-71
2023/04/09 09:58:14;;;;;;;39.57;23.17;;;;;;;-145.18;100.00;47314.81;6183264;23;19997;-71
2023/04/09 10:00:40;;;;;;;44.50;23.63;;;;;;;-145.18;100.00;47314.81;6183259;23;20001;-71
2023/04/09 10:03:20;;;;;;;45.13;23.63;;;;;;;-145.18;100.00;47303.09;6182565;23;20342;-71
2023/04/09 10:05:48;;;;;;;38.20;22.60;;;;;;;-145.18;100.00;47322.63;6183517;23;20438;-71
2023/04/09 10:08:14;;;;;;;38.53;23.23;;;;;;;-145.18;100.00;47301.16;6183217;23;20005;-71
2023/04/09 10:10:41;;;;;;;44.37;22.93;;;;;;;-145.18;100.00;47299.19;6182840;23;20100;-71
2023/04/09 10:13:12;;;;;;;33.53;20.47;;;;;;;-145.18;100.00;47285.50;6157052;23;20001;-71
2023/04/09 10:15:38;;;;;;;34.13;21.50;;;;;;;-145.18;100.00;47289.41;6182761;23;20005;-71
2023/04/09 10:18:03;;;;;;;32.93;20.37;;;;;;;-145.18;100.00;47279.66;6182554;23;20422;-71
2023/04/09 10:20:38;;;;;;;29.90;18.67;;;;;;;-145.18;100.00;47277.69;6183316;23;20108;-71
2023/04/09 10:23:10;;;;;;;31.98;19.50;;;;;;;-145.18;100.00;47264.03;6182593;23;20068;-71
2023/04/09 10:25:35;;;;;;;25.80;14.83;;;;;;;-145.18;100.00;47260.13;6182993;23;20028;-71
2023/04/09 10:28:11;;;;;;;25.00;16.40;;;;;;;-145.18;100.00;47267.94;6183276;23;20009;-71
2023/04/09 10:30:36;;;;;;;27.23;17.90;;;;;;;-145.18;100.00;47265.97;6182974;23;20087;-71
2023/04/09 10:33:28;;;;;;;29.00;19.13;;;;;;;-145.18;100.00;47262.06;6182931;23;20522;-71
2023/04/09 10:36:00;;;;;;;34.47;21.00;;;;;;;-145.18;100.00;47260.13;6177100;23;20045;-71
2023/04/09 10:38:51;;;;;;;33.63;21.17;;;;;;;-145.18;100.00;47285.50;6182583;23;20005;-71
2023/04/09 10:41:30;;;;;;;34.60;21.27;;;;;;;-145.18;100.00;47308.97;6176980;23;20016;-71
2023/04/09 10:43:56;;;;;;;34.00;21.37;;;;;;;-145.18;100.00;47254.25;6182571;23;20005;-71
2023/04/09 10:46:30;;;;;;;34.53;21.97;;;;;;;-145.18;100.00;47260.13;6182793;23;20036;-71
2023/04/09 10:49:15;;;;;;;37.57;22.47;;;;;;;-145.18;100.00;47252.31;6182298;23;20085;-71
2023/04/09 10:51:46;;;;;;;34.97;21.45;;;;;;;-145.18;100.00;47248.41;6182877;23;20005;-71
2023/04/09 10:54:34;;;;;;;34.67;21.20;;;;;;;-145.18;100.00;47232.75;6182602;23;20020;-71
2023/04/09 10:57:21;;;;;;;34.20;21.60;;;;;;;-145.18;100.00;47219.09;6182800;23;20016;-71